Información del aeropuerto LEBZ

Información de pista
Pista 13 Longitud 9350 ft Anchura 197 ft
Elevación 579 ft Umbral 0 ft Rumbo 126
Pista 31 Longitud 9350 ft Anchura 197 ft
Elevación 609 ft Umbral 0 ft Rumbo 306
Frecuencias del aeropuerto
Tipo APP Nombre APP Frecuencia 139.3 MHZ
Tipo TWR Nombre BADAJOZ TW Frecuencia 122.1 MHZ
Radioayudas del aeropuerto
Tipo NDB Nombre Badajoz Frecuencia 298 KHZ
Tipo TACAN Nombre Talavera Frecuencia 108800 KHZ
Tipo VOR-DME Nombre Badajoz Frecuencia 116800 KHZ
Información meteorológica del aeropuerto y NOTAM
ADDS - METARS form results

(0459 UTC 22 September 2021)
Data provider http://aviationweather.gov/metar/data/
 
Forecast for: LEBZ (TALAVERA AB/BADA, ES)
Text: TAF LEBZ 220200Z 2203/2303 07007KT CAVOK TX26/2215Z TN14/2206Z
Forecast period: 0300 UTC 22 September 2021 to 0300 UTC 23 September 2021
Forecast type: FROM: standard forecast or significant change
Winds: from the ENE (70 degrees) at 8 MPH (7 knots; 3.6 m/s)
Visibility: 6 or more miles (10+ km)
Ceiling: unknown
Clouds: missing
Weather: no significant weather forecast for this period
Text: PROB30
Forecast period: 1600 to 2300 UTC 22 September 2021
Forecast type: TEMPORARY: The following changes expected for less than half the time period
Visibility: 2.49 miles (4.01 km)
Ceiling: at least 12,000 feet AGL
Clouds: scattered clouds at 3500 feet AGL
Weather: SHRA  (rain showers)